createdAt,value
2024-04-24T00:00:08.747Z,100536.28
2024-04-24T00:02:35.415Z,100528.25
2024-04-24T00:05:05.536Z,100521.19
2024-04-24T00:07:32.671Z,100524.69
2024-04-24T00:09:59.620Z,100525.69
2024-04-24T00:12:26.273Z,100513.28
2024-04-24T00:14:52.997Z,100511.34
2024-04-24T00:17:19.749Z,100509.66
2024-04-24T00:19:46.531Z,100507.94
2024-04-24T00:22:13.222Z,100507.94
2024-04-24T00:24:39.965Z,100506.25
2024-04-24T00:27:06.670Z,100499.16
2024-04-24T00:29:33.360Z,100499.16
2024-04-24T00:32:06.842Z,100503.69
2024-04-24T00:34:34.323Z,100495.81
2024-04-24T00:37:01.097Z,100488.84
2024-04-24T00:39:27.854Z,100489.84
2024-04-24T00:41:54.661Z,100491.78
2024-04-24T00:44:21.434Z,100481.19
2024-04-24T00:46:48.314Z,100480.34
2024-04-24T00:49:15.259Z,100482.19
2024-04-24T00:51:42.683Z,100485.69
2024-04-24T00:54:09.699Z,100484.72
2024-04-24T00:56:36.700Z,100485.44
2024-04-24T00:59:03.485Z,100480.97
2024-04-24T01:01:30.303Z,100485.31
2024-04-24T01:03:57.060Z,100479.88
2024-04-24T01:06:23.808Z,100472.69
2024-04-24T01:08:50.542Z,100470.75
2024-04-24T01:11:17.437Z,100475.09
2024-04-24T01:13:44.294Z,100473.16
2024-04-24T01:16:14.535Z,100471.22
2024-04-24T01:18:48.789Z,100475.50
2024-04-24T01:21:15.735Z,100475.25
2024-04-24T01:24:06.384Z,100474.38
2024-04-24T01:26:48.534Z,100475.25
2024-04-24T01:29:15.499Z,100472.44
2024-04-24T01:31:42.284Z,100473.19
2024-04-24T01:34:09.090Z,100466.00
2024-04-24T01:36:36.205Z,100471.22
2024-04-24T01:39:05.759Z,100476.69
2024-04-24T01:41:32.737Z,100471.22
2024-04-24T01:43:59.490Z,100475.75
2024-04-24T01:46:26.137Z,100475.97
2024-04-24T01:48:53.242Z,100471.72
2024-04-24T01:51:19.981Z,100470.16
2024-04-24T01:53:46.684Z,100469.53
2024-04-24T01:56:13.724Z,100473.31
2024-04-24T01:58:40.533Z,100474.16
2024-04-24T02:01:07.265Z,100462.59
2024-04-24T02:03:34.015Z,100460.78
2024-04-24T02:06:01.232Z,100462.47
2024-04-24T02:08:27.999Z,100456.38
2024-04-24T02:10:54.739Z,100459.06
2024-04-24T02:13:21.409Z,100455.44
2024-04-24T02:15:48.115Z,100453.72
2024-04-24T02:18:14.980Z,100460.78
2024-04-24T02:20:41.726Z,100462.59
2024-04-24T02:23:08.964Z,100455.44
2024-04-24T02:25:35.816Z,100463.34
2024-04-24T02:28:03.736Z,100455.31
2024-04-24T02:30:30.822Z,100458.81
2024-04-24T02:32:57.658Z,100453.47
2024-04-24T02:35:24.399Z,100445.34
2024-04-24T02:37:51.262Z,100457.13
2024-04-24T02:40:17.934Z,100460.16
2024-04-24T02:42:44.650Z,100450.69
2024-04-24T02:45:11.344Z,100459.78
2024-04-24T02:47:38.199Z,100453.97
2024-04-24T02:50:05.095Z,100453.25
2024-04-24T02:52:31.879Z,100452.50
2024-04-24T02:54:58.547Z,100457.13
2024-04-24T02:57:25.236Z,100448.47
2024-04-24T02:59:51.937Z,100445.16
2024-04-24T03:02:18.767Z,100449.06
2024-04-24T03:04:45.596Z,100450.16
2024-04-24T03:07:12.265Z,100442.38
2024-04-24T03:09:39.121Z,100447.09
2024-04-24T03:12:05.930Z,100447.31
2024-04-24T03:14:32.849Z,100450.25
2024-04-24T03:16:59.656Z,100443.81
2024-04-24T03:19:26.378Z,100444.38
2024-04-24T03:21:53.068Z,100441.97
2024-04-24T03:24:19.750Z,100437.56
2024-04-24T03:26:46.412Z,100436.84
2024-04-24T03:29:13.115Z,100437.81
2024-04-24T03:31:39.837Z,100450.34
2024-04-24T03:34:06.977Z,100448.00
2024-04-24T03:36:33.695Z,100444.00
2024-04-24T03:39:00.540Z,100453.56
2024-04-24T03:41:27.358Z,100451.34
2024-04-24T03:43:54.126Z,100450.09
2024-04-24T03:46:20.847Z,100456.13
2024-04-24T03:48:47.600Z,100453.66
2024-04-24T03:51:14.307Z,100458.41
2024-04-24T03:53:40.969Z,100462.13
2024-04-24T03:56:08.321Z,100465.88
2024-04-24T03:58:35.189Z,100464.50
2024-04-24T04:01:02.014Z,100466.69
2024-04-24T04:03:28.722Z,100471.28
2024-04-24T04:05:55.390Z,100469.59
2024-04-24T04:08:24.249Z,100470.78
2024-04-24T04:10:51.169Z,100476.56
2024-04-24T04:13:17.918Z,100485.94
2024-04-24T04:15:44.630Z,100470.19
2024-04-24T04:18:11.352Z,100480.97
2024-04-24T04:20:38.073Z,100483.63
2024-04-24T04:23:04.890Z,100482.03
2024-04-24T04:25:31.588Z,100487.47
2024-04-24T04:27:58.890Z,100488.75
2024-04-24T04:30:25.688Z,100487.81
2024-04-24T04:32:52.403Z,100485.34
2024-04-24T04:35:19.413Z,100487.19
2024-04-24T04:37:46.122Z,100491.38
2024-04-24T04:40:12.844Z,100482.81
2024-04-24T04:42:39.719Z,100485.16
2024-04-24T04:45:07.363Z,100483.47
2024-04-24T04:47:34.239Z,100491.38
2024-04-24T04:50:01.052Z,100492.41
2024-04-24T04:52:27.914Z,100493.56
2024-04-24T04:54:54.557Z,100489.75
2024-04-24T04:57:21.228Z,100502.53
2024-04-24T04:59:48.160Z,100494.97
2024-04-24T05:02:14.910Z,100500.13
2024-04-24T05:04:41.723Z,100495.44
2024-04-24T05:07:08.464Z,100493.47
2024-04-24T05:09:36.780Z,100494.94
2024-04-24T05:12:03.823Z,100496.47
2024-04-24T05:14:30.724Z,100496.53
2024-04-24T05:16:57.488Z,100495.03
2024-04-24T05:19:24.357Z,100499.03
2024-04-24T05:21:51.023Z,100501.25
2024-04-24T05:24:17.763Z,100494.63
2024-04-24T05:27:03.238Z,100489.78
2024-04-24T05:29:29.940Z,100484.88
2024-04-24T05:31:56.736Z,100485.47
2024-04-24T05:34:24.706Z,100488.03
2024-04-24T05:36:51.695Z,100486.81
2024-04-24T05:39:18.418Z,100485.38
2024-04-24T05:41:45.080Z,100481.28
2024-04-24T05:44:11.933Z,100484.25
2024-04-24T05:46:38.802Z,100481.94
2024-04-24T05:49:05.435Z,100482.31
2024-04-24T05:51:32.179Z,100483.53
2024-04-24T05:53:58.929Z,100489.41
2024-04-24T05:56:25.692Z,100478.34
2024-04-24T05:58:52.424Z,100480.66
2024-04-24T06:01:19.222Z,100484.91
2024-04-24T06:03:45.969Z,100485.88
2024-04-24T06:06:12.647Z,100482.22
2024-04-24T06:08:39.332Z,100489.94
2024-04-24T06:11:06.220Z,100488.00
2024-04-24T06:13:33.087Z,100487.53
2024-04-24T06:15:59.748Z,100487.16
2024-04-24T06:18:26.455Z,100492.13
2024-04-24T06:20:53.172Z,100480.13
2024-04-24T06:23:19.974Z,100483.03
2024-04-24T06:25:47.395Z,100490.44
2024-04-24T06:28:14.141Z,100494.34
2024-04-24T06:30:42.947Z,100495.66
2024-04-24T06:33:09.808Z,100490.53
2024-04-24T06:35:36.633Z,100496.00
2024-04-24T06:38:03.702Z,100491.72
2024-04-24T06:40:30.471Z,100495.09
2024-04-24T06:42:57.218Z,100489.47
2024-04-24T06:45:23.887Z,100491.13
2024-04-24T06:47:50.673Z,100487.16
2024-04-24T06:50:17.449Z,100479.94
2024-04-24T06:52:44.151Z,100491.34
2024-04-24T06:55:11.503Z,100492.00
2024-04-24T06:57:38.151Z,100491.69
2024-04-24T07:00:05.434Z,100495.00
2024-04-24T07:02:32.133Z,100483.06
2024-04-24T07:04:58.842Z,100495.41
2024-04-24T07:07:25.536Z,100485.16
2024-04-24T07:09:52.217Z,100491.16
2024-04-24T07:12:19.227Z,100489.91
2024-04-24T07:14:45.892Z,100500.38
2024-04-24T07:17:13.666Z,100499.16
2024-04-24T07:19:40.450Z,100490.03
2024-04-24T07:22:07.777Z,100492.56
2024-04-24T07:24:35.233Z,100488.63
2024-04-24T07:27:01.959Z,100493.00
2024-04-24T07:29:28.745Z,100484.94
2024-04-24T07:31:55.491Z,100495.69
2024-04-24T07:34:22.168Z,100482.38
2024-04-24T07:36:48.865Z,100490.44
2024-04-24T07:39:15.539Z,100487.03
2024-04-24T07:41:43.590Z,100489.69
2024-04-24T07:44:10.745Z,100488.13
2024-04-24T07:46:37.869Z,100494.59
2024-04-24T07:49:04.690Z,100485.81
2024-04-24T07:51:31.461Z,100484.25
2024-04-24T07:53:58.179Z,100485.31
2024-04-24T07:56:25.071Z,100489.97
2024-04-24T07:58:51.951Z,100484.16
2024-04-24T08:01:22.657Z,100487.13
2024-04-24T08:03:49.762Z,100480.97
2024-04-24T08:06:16.599Z,100485.59
2024-04-24T08:08:43.436Z,100489.56
2024-04-24T08:11:10.258Z,100489.09
2024-04-24T08:13:37.039Z,100487.63
2024-04-24T08:16:03.915Z,100491.88
2024-04-24T08:18:30.644Z,100494.69
2024-04-24T08:20:57.825Z,100500.13
2024-04-24T08:23:26.907Z,100503.09
2024-04-24T08:25:55.013Z,100495.94
2024-04-24T08:28:32.603Z,100501.41
2024-04-24T08:31:05.594Z,100507.84
2024-04-24T08:33:36.170Z,100502.03
2024-04-24T08:36:05.151Z,100498.88
2024-04-24T08:38:32.504Z,100501.97
2024-04-24T08:41:07.021Z,100499.63
2024-04-24T08:43:45.802Z,100498.16
2024-04-24T08:46:13.250Z,100492.31
2024-04-24T08:48:41.555Z,100497.06
2024-04-24T08:51:12.551Z,100492.06
2024-04-24T08:53:55.461Z,100493.13
2024-04-24T08:56:23.731Z,100496.88
2024-04-24T08:58:53.022Z,100501.97
2024-04-24T09:01:22.209Z,100498.94
2024-04-24T09:03:51.764Z,100497.63
2024-04-24T09:06:19.267Z,100499.19
2024-04-24T09:08:46.130Z,100496.00
2024-04-24T09:11:13.099Z,100494.97
2024-04-24T09:13:40.103Z,100489.44
2024-04-24T09:16:08.655Z,100490.13
2024-04-24T09:18:35.516Z,100499.75
2024-04-24T09:21:03.607Z,100495.03
2024-04-24T09:23:30.331Z,100499.44
2024-04-24T09:25:58.889Z,100492.03
2024-04-24T09:28:26.000Z,100495.56
2024-04-24T09:30:53.974Z,100492.88
2024-04-24T09:33:20.827Z,100497.44
2024-04-24T09:35:47.899Z,100497.72
2024-04-24T09:38:14.671Z,100498.41
2024-04-24T09:40:41.597Z,100497.44
2024-04-24T09:43:10.884Z,100501.94
2024-04-24T09:45:37.617Z,100497.44
2024-04-24T09:48:05.329Z,100499.09
2024-04-24T09:50:39.439Z,100498.63
2024-04-24T09:53:06.262Z,100496.44
2024-04-24T09:55:38.499Z,100495.13
2024-04-24T09:58:08.406Z,100489.56
2024-04-24T10:00:36.599Z,100491.09
2024-04-24T10:03:04.291Z,100491.94
2024-04-24T10:05:36.029Z,100486.22
2024-04-24T10:08:12.433Z,100487.91
2024-04-24T10:10:41.191Z,100484.38
2024-04-24T10:13:09.050Z,100491.44
2024-04-24T10:15:44.643Z,100481.31
2024-04-24T10:18:11.851Z,100479.31
2024-04-24T10:20:42.539Z,100485.75
2024-04-24T10:23:09.361Z,100480.50
2024-04-24T10:25:36.558Z,100487.59
2024-04-24T10:28:06.883Z,100492.53
2024-04-24T10:30:37.210Z,100488.66
2024-04-24T10:33:06.078Z,100498.13
2024-04-24T10:35:33.194Z,100492.25
2024-04-24T10:38:06.963Z,100493.59
2024-04-24T10:40:34.463Z,100491.59
2024-04-24T10:43:06.040Z,100501.06
2024-04-24T10:45:42.160Z,100495.31
2024-04-24T10:48:11.312Z,100496.00
2024-04-24T10:50:39.606Z,100501.41
2024-04-24T10:53:06.897Z,100501.41
2024-04-24T10:55:33.768Z,100503.94
2024-04-24T10:58:00.467Z,100491.97
2024-04-24T11:00:31.173Z,100496.38
2024-04-24T11:03:01.865Z,100492.66
2024-04-24T11:05:32.803Z,100497.91
2024-04-24T11:08:01.328Z,100489.63
2024-04-24T11:10:29.440Z,100493.03
2024-04-24T11:12:56.391Z,100489.97
2024-04-24T11:15:27.622Z,100483.56
2024-04-24T11:17:54.631Z,100487.94
2024-04-24T11:20:22.836Z,100487.28
2024-04-24T11:22:49.606Z,100488.16
2024-04-24T11:25:19.019Z,100467.34
2024-04-24T11:27:46.268Z,100477.34
2024-04-24T11:30:14.911Z,100473.06
2024-04-24T11:32:48.212Z,100472.41
2024-04-24T11:35:16.200Z,100473.06
2024-04-24T11:37:43.386Z,100472.91
2024-04-24T11:40:11.216Z,100475.44
2024-04-24T11:42:44.361Z,100469.97
2024-04-24T11:45:12.235Z,100460.59
2024-04-24T11:47:39.506Z,100467.03
2024-04-24T11:50:07.917Z,100474.84
2024-04-24T11:52:52.891Z,100462.22
2024-04-24T11:55:20.757Z,100459.44
2024-04-24T11:57:48.491Z,100463.31
2024-04-24T12:00:15.866Z,100454.03
2024-04-24T12:02:43.038Z,100453.16
2024-04-24T12:05:10.186Z,100457.03
2024-04-24T12:07:43.988Z,100456.47
2024-04-24T12:10:12.362Z,100449.41
2024-04-24T12:12:39.666Z,100454.09
2024-04-24T12:15:07.063Z,100456.59
2024-04-24T12:17:34.250Z,100454.63
2024-04-24T12:20:02.818Z,100453.56
2024-04-24T12:22:31.186Z,100449.78
2024-04-24T12:24:58.158Z,100450.38
2024-04-24T12:27:25.298Z,100454.56
2024-04-24T12:29:52.489Z,100447.47
2024-04-24T12:32:19.850Z,100449.31
2024-04-24T12:34:47.038Z,100441.25
2024-04-24T12:37:14.222Z,100441.53
2024-04-24T12:39:41.426Z,100440.56
2024-04-24T12:42:08.978Z,100437.84
2024-04-24T12:44:36.067Z,100439.84
2024-04-24T12:47:04.427Z,100431.38
2024-04-24T12:49:31.622Z,100431.13
2024-04-24T12:51:59.875Z,100426.91
2024-04-24T12:54:27.055Z,100434.00
2024-04-24T12:56:54.110Z,100432.72
2024-04-24T12:59:21.285Z,100423.59
2024-04-24T13:01:48.442Z,100429.69
2024-04-24T13:04:18.015Z,100432.38
2024-04-24T13:06:45.306Z,100421.75
2024-04-24T13:09:12.506Z,100417.22
2024-04-24T13:11:39.722Z,100428.84
2024-04-24T13:14:11.438Z,100421.94
2024-04-24T13:16:38.606Z,100410.75
2024-04-24T13:19:05.806Z,100418.28
2024-04-24T13:21:33.098Z,100405.28
2024-04-24T13:24:00.071Z,100417.34
2024-04-24T13:26:27.368Z,100403.50
2024-04-24T13:28:54.408Z,100410.91
2024-04-24T13:31:21.450Z,100401.19
2024-04-24T13:33:48.533Z,100402.66
2024-04-24T13:36:19.926Z,100398.75
2024-04-24T13:38:49.222Z,100397.81
2024-04-24T13:41:18.588Z,100404.28
2024-04-24T13:43:46.739Z,100391.72
2024-04-24T13:46:13.874Z,100403.25
2024-04-24T13:48:42.064Z,100399.78
2024-04-24T13:51:09.379Z,100397.47
2024-04-24T13:53:36.697Z,100393.13
2024-04-24T13:56:03.834Z,100392.69
2024-04-24T13:58:30.974Z,100383.41
2024-04-24T14:00:58.413Z,100380.09
2024-04-24T14:03:25.553Z,100382.84
2024-04-24T14:05:55.969Z,100378.31
2024-04-24T14:08:23.830Z,100371.13
2024-04-24T14:10:51.711Z,100378.56
2024-04-24T14:13:18.863Z,100372.16
2024-04-24T14:15:47.049Z,100376.41
2024-04-24T14:18:14.055Z,100373.50
2024-04-24T14:20:41.717Z,100376.41
2024-04-24T14:23:08.982Z,100364.72
2024-04-24T14:25:36.228Z,100365.91
2024-04-24T14:28:03.540Z,100361.00
2024-04-24T14:30:30.616Z,100363.66
2024-04-24T14:32:57.865Z,100358.22
2024-04-24T14:35:25.361Z,100361.88
2024-04-24T14:37:52.708Z,100361.84
2024-04-24T14:40:19.854Z,100359.94
2024-04-24T14:42:49.594Z,100354.00
2024-04-24T14:45:17.032Z,100351.47
2024-04-24T14:47:44.667Z,100343.91
2024-04-24T14:50:12.303Z,100344.28
2024-04-24T14:52:39.518Z,100348.16
2024-04-24T14:55:07.428Z,100344.69
2024-04-24T14:57:34.761Z,100341.34
2024-04-24T15:00:01.762Z,100348.78
2024-04-24T15:02:29.029Z,100349.31
2024-04-24T15:04:56.213Z,100343.94
2024-04-24T15:07:23.299Z,100345.94
2024-04-24T15:09:50.419Z,100348.47
2024-04-24T15:12:17.635Z,100348.47
2024-04-24T15:14:45.081Z,100345.06
2024-04-24T15:17:12.240Z,100341.69
2024-04-24T15:19:42.056Z,100346.59
2024-04-24T15:22:09.500Z,100346.69
2024-04-24T15:24:36.711Z,100343.13
2024-04-24T15:27:03.877Z,100342.22
2024-04-24T15:29:31.044Z,100349.09
2024-04-24T15:31:58.350Z,100342.16
2024-04-24T15:34:25.985Z,100345.16
2024-04-24T15:36:53.558Z,100349.91
2024-04-24T15:39:20.869Z,100351.72
2024-04-24T15:41:49.731Z,100350.06
2024-04-24T15:44:17.308Z,100346.50
2024-04-24T15:46:45.169Z,100347.50
2024-04-24T15:49:12.604Z,100348.50
2024-04-24T15:51:42.005Z,100345.09
2024-04-24T15:54:10.204Z,100348.78
2024-04-24T15:56:39.080Z,100346.25
2024-04-24T15:59:06.632Z,100343.72
2024-04-24T16:01:34.291Z,100340.50
2024-04-24T16:04:01.967Z,100339.25
2024-04-24T16:06:30.368Z,100338.75
2024-04-24T16:08:58.301Z,100340.06
2024-04-24T16:11:26.697Z,100336.84
2024-04-24T16:13:54.389Z,100341.69
2024-04-24T16:16:22.126Z,100333.75
2024-04-24T16:18:51.576Z,100334.06
2024-04-24T16:21:20.641Z,100339.47
2024-04-24T16:23:48.713Z,100340.63
2024-04-24T16:26:16.769Z,100336.41
2024-04-24T16:28:45.050Z,100333.00
2024-04-24T16:31:13.968Z,100328.59
2024-04-24T16:33:43.949Z,100333.16
2024-04-24T16:36:14.197Z,100332.31
2024-04-24T16:38:42.217Z,100332.31
2024-04-24T16:41:16.850Z,100336.16
2024-04-24T16:43:50.252Z,100332.75
2024-04-24T16:46:20.747Z,100338.31
2024-04-24T16:48:49.005Z,100337.63
2024-04-24T16:51:17.207Z,100330.53
2024-04-24T16:53:48.975Z,100332.41
2024-04-24T16:56:19.804Z,100335.94
2024-04-24T16:58:48.162Z,100338.47
2024-04-24T17:01:17.937Z,100333.09
2024-04-24T17:03:46.238Z,100333.94
2024-04-24T17:06:14.231Z,100340.00
2024-04-24T17:08:42.137Z,100338.31
2024-04-24T17:11:10.220Z,100349.25
2024-04-24T17:13:38.387Z,100338.75
2024-04-24T17:16:06.676Z,100348.84
2024-04-24T17:18:35.151Z,100343.94
2024-04-24T17:21:04.683Z,100356.00
2024-04-24T17:23:33.183Z,100350.25
2024-04-24T17:26:03.070Z,100355.09
2024-04-24T17:28:31.006Z,100354.84
2024-04-24T17:30:59.339Z,100356.00
2024-04-24T17:33:27.544Z,100355.47
2024-04-24T17:35:58.993Z,100358.63
2024-04-24T17:38:27.531Z,100359.09
2024-04-24T17:40:56.191Z,100359.22
2024-04-24T17:43:27.582Z,100360.38
2024-04-24T17:45:56.458Z,100373.16
2024-04-24T17:48:25.370Z,100369.91
2024-04-24T17:50:53.702Z,100377.59
2024-04-24T17:53:22.486Z,100381.56
2024-04-24T17:55:52.848Z,100379.59
2024-04-24T17:58:21.522Z,100375.34
2024-04-24T18:00:50.868Z,100371.41
2024-04-24T18:03:19.456Z,100369.03
2024-04-24T18:05:49.071Z,100373.00
2024-04-24T18:08:20.939Z,100375.84
2024-04-24T18:10:50.408Z,100375.28
2024-04-24T18:13:19.651Z,100367.53
2024-04-24T18:15:49.139Z,100372.19
2024-04-24T18:18:20.161Z,100371.50
2024-04-24T18:20:48.856Z,100373.50
2024-04-24T18:23:17.541Z,100381.56
2024-04-24T18:25:46.039Z,100382.53
2024-04-24T18:28:15.007Z,100387.22
2024-04-24T18:30:43.576Z,100385.53
2024-04-24T18:33:12.118Z,100391.19
2024-04-24T18:35:40.930Z,100381.72
2024-04-24T18:38:09.354Z,100392.09
2024-04-24T18:40:37.872Z,100392.28
2024-04-24T18:43:10.628Z,100391.00
2024-04-24T18:45:39.347Z,100387.66
2024-04-24T18:48:11.180Z,100395.56
2024-04-24T18:50:40.854Z,100400.63
2024-04-24T18:53:10.132Z,100403.44
2024-04-24T18:55:38.903Z,100406.66
2024-04-24T18:58:07.813Z,100405.25
2024-04-24T19:00:37.730Z,100411.03
2024-04-24T19:03:06.889Z,100415.00
2024-04-24T19:05:35.765Z,100412.72
2024-04-24T19:08:04.823Z,100420.06
2024-04-24T19:10:33.728Z,100420.34
2024-04-24T19:13:02.401Z,100417.09
2024-04-24T19:15:32.441Z,100423.44
2024-04-24T19:18:02.474Z,100423.28
2024-04-24T19:20:34.046Z,100431.22
2024-04-24T19:23:03.989Z,100431.09
2024-04-24T19:25:33.967Z,100434.88
2024-04-24T19:28:05.291Z,100431.63
2024-04-24T19:30:34.250Z,100439.38
2024-04-24T19:33:03.370Z,100438.94
2024-04-24T19:35:32.914Z,100446.56
2024-04-24T19:38:02.761Z,100449.59
2024-04-24T19:40:34.210Z,100445.38
2024-04-24T19:43:03.806Z,100465.41
2024-04-24T19:45:35.835Z,100455.22
2024-04-24T19:48:05.646Z,100463.94
2024-04-24T19:50:35.286Z,100468.13
2024-04-24T19:53:04.639Z,100472.19
2024-04-24T19:55:38.179Z,100472.84
2024-04-24T19:58:10.396Z,100474.09
2024-04-24T20:00:39.719Z,100479.84
2024-04-24T20:03:09.196Z,100481.22
2024-04-24T20:05:38.486Z,100482.44
2024-04-24T20:08:07.664Z,100481.97
2024-04-24T20:10:36.998Z,100485.00
2024-04-24T20:13:08.434Z,100481.75
2024-04-24T20:15:39.598Z,100486.53
2024-04-24T20:18:09.135Z,100491.44
2024-04-24T20:20:38.597Z,100490.84
2024-04-24T20:23:07.432Z,100493.63
2024-04-24T20:25:36.662Z,100498.38
2024-04-24T20:28:05.878Z,100500.50
2024-04-24T20:30:35.972Z,100500.59
2024-04-24T20:33:08.912Z,100501.72
2024-04-24T20:35:38.478Z,100503.78
2024-04-24T20:38:07.458Z,100496.88
2024-04-24T20:40:37.184Z,100507.81
2024-04-24T20:43:06.833Z,100509.91
2024-04-24T20:45:36.013Z,100510.31
2024-04-24T20:48:05.540Z,100504.22
2024-04-24T20:50:34.766Z,100506.03
2024-04-24T20:53:04.502Z,100496.44
2024-04-24T20:55:34.118Z,100505.78
2024-04-24T20:58:02.892Z,100514.16
2024-04-24T21:00:32.204Z,100510.97
2024-04-24T21:03:01.255Z,100509.03
2024-04-24T21:05:30.020Z,100509.75
2024-04-24T21:07:58.297Z,100506.97
2024-04-24T21:10:26.814Z,100501.44
2024-04-24T21:12:55.186Z,100504.84
2024-04-24T21:15:23.325Z,100511.09
2024-04-24T21:17:51.363Z,100506.56
2024-04-24T21:20:20.995Z,100497.53
2024-04-24T21:22:49.157Z,100501.44
2024-04-24T21:25:17.168Z,100503.28
2024-04-24T21:27:44.973Z,100507.91
2024-04-24T21:30:13.326Z,100507.06
2024-04-24T21:32:40.997Z,100505.13
2024-04-24T21:35:09.350Z,100499.75
2024-04-24T21:37:37.597Z,100495.25
2024-04-24T21:40:05.547Z,100500.00
2024-04-24T21:42:33.294Z,100495.63
2024-04-24T21:45:00.703Z,100500.50
2024-04-24T21:47:28.393Z,100499.06
2024-04-24T21:49:56.192Z,100501.75
2024-04-24T21:52:23.575Z,100493.97
2024-04-24T21:54:51.069Z,100494.94
2024-04-24T21:57:18.416Z,100495.94
2024-04-24T21:59:45.845Z,100498.00
2024-04-24T22:02:13.379Z,100489.22
2024-04-24T22:04:41.213Z,100489.97
2024-04-24T22:07:08.347Z,100496.44
2024-04-24T22:09:35.658Z,100493.03
2024-04-24T22:12:03.042Z,100505.44
2024-04-24T22:14:30.268Z,100501.78
2024-04-24T22:16:57.839Z,100500.09
2024-04-24T22:19:25.175Z,100494.25
2024-04-24T22:21:52.259Z,100491.56
2024-04-24T22:24:20.113Z,100496.09
2024-04-24T22:26:47.437Z,100492.56
2024-04-24T22:29:14.647Z,100498.88
2024-04-24T22:34:08.810Z,100499.97
2024-04-24T22:36:35.872Z,100504.34
2024-04-24T22:39:02.937Z,100506.19
2024-04-24T22:41:29.915Z,100507.28
2024-04-24T22:43:57.024Z,100502.78
2024-04-24T22:46:23.945Z,100504.63
2024-04-24T22:48:50.902Z,100506.44
2024-04-24T22:51:17.872Z,100507.41
2024-04-24T22:53:45.000Z,100508.41
2024-04-24T22:56:13.219Z,100508.63
2024-04-24T22:58:40.677Z,100511.69
2024-04-24T23:01:07.720Z,100505.97
2024-04-24T23:03:34.675Z,100509.25
2024-04-24T23:06:01.560Z,100513.41
2024-04-24T23:08:28.483Z,100513.53
2024-04-24T23:10:55.183Z,100510.97
2024-04-24T23:13:21.888Z,100519.13
2024-04-24T23:15:48.608Z,100516.59
2024-04-24T23:18:15.382Z,100516.69
2024-04-24T23:20:42.394Z,100510.50
2024-04-24T23:23:09.456Z,100520.34
2024-04-24T23:25:36.179Z,100522.16
2024-04-24T23:28:02.960Z,100514.28
2024-04-24T23:30:29.741Z,100514.38
2024-04-24T23:32:58.840Z,100518.03
2024-04-24T23:35:25.768Z,100518.91
2024-04-24T23:37:52.513Z,100520.84
2024-04-24T23:40:19.238Z,100519.59
2024-04-24T23:42:45.954Z,100520.09
2024-04-24T23:45:12.795Z,100516.81
2024-04-24T23:47:39.674Z,100515.84
2024-04-24T23:50:06.623Z,100507.94
2024-04-24T23:52:33.409Z,100519.88
2024-04-24T23:55:00.148Z,100507.56
2024-04-24T23:57:26.870Z,100513.78
2024-04-24T23:59:53.705Z,100509.50
